Time;durP1;ratioP1;P1;durP2;ratioP2;P2;SDS_P1;SDS_P2;PMS_P1;PMS_P2;Temp;Humidity;BMP_temperature;BMP_pressure;BME280_temperature;BME280_humidity;BME280_pressure;Samples;Min_cycle;Max_cycle;Signal;HPM_P1;HPM_P2
2022/11/25 00:00:13;;;;;;;25.00;4.50;;;;;;;;;;5111830;28;20092;-64
2022/11/25 00:02:43;;;;;;;15.02;4.10;;;;;;;;;;5111828;28;20027;-64
2022/11/25 00:05:09;;;;;;;17.17;4.25;;;;;;;;;;5090329;28;20640;-64
2022/11/25 00:07:35;;;;;;;14.57;4.85;;;;;;;;;;5091389;28;20040;-64
2022/11/25 00:10:02;;;;;;;17.85;4.82;;;;;;;;;;5111792;28;20049;-64
2022/11/25 00:12:28;;;;;;;18.02;4.75;;;;;;;;;;5112117;28;20090;-64
2022/11/25 00:14:54;;;;;;;14.77;4.15;;;;;;;;;;5111666;28;20043;-63
2022/11/25 00:17:20;;;;;;;16.13;4.07;;;;;;;;;;5110357;28;20044;-63
2022/11/25 00:19:47;;;;;;;17.40;4.32;;;;;;;;;;5111767;28;20040;-63
2022/11/25 00:22:14;;;;;;;14.18;3.97;;;;;;;;;;5111516;28;20098;-63
2022/11/25 00:24:40;;;;;;;20.70;4.43;;;;;;;;;;5111704;28;20040;-63
2022/11/25 00:27:06;;;;;;;18.20;4.13;;;;;;;;;;5111605;28;20043;-64
2022/11/25 00:29:32;;;;;;;12.88;4.63;;;;;;;;;;5110154;28;20478;-64
2022/11/25 00:31:58;;;;;;;19.33;4.82;;;;;;;;;;5111757;28;20035;-64
2022/11/25 00:34:24;;;;;;;23.42;5.00;;;;;;;;;;5111566;28;20593;-64
2022/11/25 00:36:52;;;;;;;12.93;4.35;;;;;;;;;;5110040;28;20090;-64
2022/11/25 00:39:18;;;;;;;22.58;4.55;;;;;;;;;;5111567;28;20044;-64
2022/11/25 00:44:38;;;;;;;23.42;4.13;;;;;;;;;;5111260;28;20044;-64
2022/11/25 00:47:09;;;;;;;25.83;5.22;;;;;;;;;;5111705;28;20040;-64
2022/11/25 00:49:35;;;;;;;19.58;5.32;;;;;;;;;;5110108;28;20126;-64
2022/11/25 00:52:01;;;;;;;21.65;5.60;;;;;;;;;;5111212;28;20051;-64
2022/11/25 00:54:27;;;;;;;18.58;4.55;;;;;;;;;;5111690;28;20040;-64
2022/11/25 00:56:53;;;;;;;23.38;5.15;;;;;;;;;;5111512;28;20096;-64
2022/11/25 00:59:20;;;;;;;23.08;5.22;;;;;;;;;;5110868;28;20535;-64
2022/11/25 01:01:46;;;;;;;17.35;4.70;;;;;;;;;;5111384;28;20044;-64
2022/11/25 01:04:12;;;;;;;25.48;4.70;;;;;;;;;;5099041;28;20089;-64
2022/11/25 01:06:38;;;;;;;18.00;4.43;;;;;;;;;;5090727;28;20036;-64
2022/11/25 01:09:08;;;;;;;18.38;4.50;;;;;;;;;;5103286;28;20202;-64
2022/11/25 01:11:34;;;;;;;25.17;4.97;;;;;;;;;;5111184;28;20039;-64
2022/11/25 01:14:00;;;;;;;18.58;4.70;;;;;;;;;;5111215;28;20103;-64
2022/11/25 01:16:26;;;;;;;18.30;4.45;;;;;;;;;;5114948;28;20081;-64
2022/11/25 01:18:52;;;;;;;16.40;4.47;;;;;;;;;;5115249;28;20047;-64
2022/11/25 01:21:20;;;;;;;22.02;4.53;;;;;;;;;;5113244;28;20410;-64
2022/11/25 01:23:47;;;;;;;21.00;4.43;;;;;;;;;;5113605;28;20119;-64
2022/11/25 01:26:14;;;;;;;15.20;4.65;;;;;;;;;;5096457;28;20039;-64
2022/11/25 01:28:40;;;;;;;15.68;4.53;;;;;;;;;;5114566;28;20036;-64
2022/11/25 01:31:08;;;;;;;24.13;4.70;;;;;;;;;;5114488;28;20043;-64
2022/11/25 01:33:34;;;;;;;16.67;4.53;;;;;;;;;;5114938;28;20073;-64
2022/11/25 01:36:04;;;;;;;18.33;4.20;;;;;;;;;;5114874;28;20776;-64
2022/11/25 01:38:31;;;;;;;14.52;4.35;;;;;;;;;;5114785;28;20073;-64
2022/11/25 01:40:57;;;;;;;17.50;4.00;;;;;;;;;;5114702;28;20470;-64
2022/11/25 01:43:23;;;;;;;20.30;4.30;;;;;;;;;;5113234;28;20044;-64
2022/11/25 01:45:49;;;;;;;18.23;4.80;;;;;;;;;;5114473;28;20360;-64
2022/11/25 01:48:22;;;;;;;17.58;4.57;;;;;;;;;;5113391;28;20042;-64
2022/11/25 01:50:48;;;;;;;22.58;4.53;;;;;;;;;;5113009;28;20426;-65
2022/11/25 01:53:15;;;;;;;17.70;3.90;;;;;;;;;;5112667;28;20044;-65
2022/11/25 01:55:44;;;;;;;19.23;4.32;;;;;;;;;;5114534;28;20073;-65
2022/11/25 01:58:30;;;;;;;22.55;4.65;;;;;;;;;;5114533;28;20031;-65
2022/11/25 02:00:57;;;;;;;22.02;5.10;;;;;;;;;;5113747;28;20105;-64
2022/11/25 02:03:25;;;;;;;17.38;4.00;;;;;;;;;;5107573;28;20051;-64
2022/11/25 02:05:58;;;;;;;20.52;4.50;;;;;;;;;;5093555;28;20040;-64
2022/11/25 02:08:26;;;;;;;32.25;6.05;;;;;;;;;;5100659;28;20027;-65
2022/11/25 02:10:53;;;;;;;21.42;5.25;;;;;;;;;;5114244;28;20046;-65
2022/11/25 02:13:20;;;;;;;20.27;5.35;;;;;;;;;;5114020;28;20036;-65
2022/11/25 02:15:46;;;;;;;16.55;4.50;;;;;;;;;;5113857;28;20123;-65
2022/11/25 02:18:12;;;;;;;16.77;4.35;;;;;;;;;;5114072;28;20229;-65
2022/11/25 02:20:39;;;;;;;19.77;5.30;;;;;;;;;;5113582;28;20124;-65
2022/11/25 02:23:05;;;;;;;21.52;5.25;;;;;;;;;;5113927;28;20439;-65
2022/11/25 02:25:33;;;;;;;25.75;5.80;;;;;;;;;;5113888;28;20096;-65
2022/11/25 02:28:07;;;;;;;24.48;5.05;;;;;;;;;;5113674;28;20420;-65
2022/11/25 02:30:33;;;;;;;18.80;5.63;;;;;;;;;;5112432;28;20776;-65
2022/11/25 02:33:00;;;;;;;19.55;6.10;;;;;;;;;;5113779;28;20078;-65
2022/11/25 02:35:27;;;;;;;24.60;5.57;;;;;;;;;;5113428;28;20047;-65
2022/11/25 02:37:55;;;;;;;18.95;5.07;;;;;;;;;;5113736;28;20043;-65
2022/11/25 02:40:21;;;;;;;22.92;6.38;;;;;;;;;;5112348;28;20048;-65
2022/11/25 02:42:49;;;;;;;22.38;6.00;;;;;;;;;;5113053;28;20089;-65
2022/11/25 02:45:17;;;;;;;18.42;5.75;;;;;;;;;;5113468;28;20046;-65
2022/11/25 02:47:43;;;;;;;22.20;6.45;;;;;;;;;;5112166;28;20055;-65
2022/11/25 02:50:09;;;;;;;17.23;6.30;;;;;;;;;;5112976;28;20034;-65
2022/11/25 02:52:35;;;;;;;19.00;6.38;;;;;;;;;;5113359;28;20044;-65
2022/11/25 02:55:01;;;;;;;20.58;6.80;;;;;;;;;;5113449;28;20040;-65
2022/11/25 02:57:28;;;;;;;19.35;6.50;;;;;;;;;;5113206;28;20045;-65
2022/11/25 02:59:54;;;;;;;23.48;6.57;;;;;;;;;;5113121;28;20085;-65
2022/11/25 03:02:20;;;;;;;30.00;6.90;;;;;;;;;;5112724;28;20050;-65
2022/11/25 03:04:46;;;;;;;25.13;7.15;;;;;;;;;;5096002;28;20036;-65
2022/11/25 03:07:12;;;;;;;26.50;6.85;;;;;;;;;;5092297;28;20079;-65
2022/11/25 03:09:38;;;;;;;28.42;7.03;;;;;;;;;;5109636;28;20039;-65
2022/11/25 03:12:19;;;;;;;24.00;8.07;;;;;;;;;;5112735;28;20498;-65
2022/11/25 03:14:46;;;;;;;28.88;7.53;;;;;;;;;;5111235;28;20640;-65
2022/11/25 03:17:12;;;;;;;17.98;6.45;;;;;;;;;;5111275;28;20052;-65
2022/11/25 03:19:38;;;;;;;25.67;7.13;;;;;;;;;;5112646;28;20048;-65
2022/11/25 03:22:04;;;;;;;19.40;7.50;;;;;;;;;;5112395;28;20058;-65
2022/11/25 03:24:31;;;;;;;20.48;6.88;;;;;;;;;;5111666;28;20047;-65
2022/11/25 03:26:57;;;;;;;26.00;8.15;;;;;;;;;;5112438;28;20043;-65
2022/11/25 03:29:24;;;;;;;27.73;7.60;;;;;;;;;;5112275;28;20050;-65
2022/11/25 03:31:50;;;;;;;22.73;7.20;;;;;;;;;;5111221;28;20122;-65
2022/11/25 03:34:16;;;;;;;26.20;6.68;;;;;;;;;;5112669;28;20046;-65
2022/11/25 03:36:42;;;;;;;25.90;7.97;;;;;;;;;;5111986;28;20046;-65
2022/11/25 03:39:08;;;;;;;25.08;7.80;;;;;;;;;;5110956;28;20047;-65
2022/11/25 03:41:34;;;;;;;22.55;8.15;;;;;;;;;;5112012;28;20153;-65
2022/11/25 03:44:00;;;;;;;23.60;7.20;;;;;;;;;;5112228;28;20060;-65
2022/11/25 03:46:26;;;;;;;21.67;7.90;;;;;;;;;;5112577;28;20031;-65
2022/11/25 03:48:52;;;;;;;24.20;8.13;;;;;;;;;;5111113;28;20040;-65
2022/11/25 03:51:18;;;;;;;24.80;7.13;;;;;;;;;;5111848;28;20039;-65
2022/11/25 03:53:44;;;;;;;27.00;7.75;;;;;;;;;;5111020;28;20059;-65
2022/11/25 03:56:10;;;;;;;27.10;8.77;;;;;;;;;;5112339;28;20048;-65
2022/11/25 03:58:36;;;;;;;23.65;7.07;;;;;;;;;;5111930;28;20664;-65
2022/11/25 04:01:03;;;;;;;35.88;9.15;;;;;;;;;;5110737;28;20504;-65
2022/11/25 04:03:29;;;;;;;25.85;7.68;;;;;;;;;;5104363;28;20067;-65
2022/11/25 04:05:55;;;;;;;27.88;7.85;;;;;;;;;;5091301;28;20426;-65
2022/11/25 04:08:22;;;;;;;23.13;8.15;;;;;;;;;;5096594;28;20039;-65
2022/11/25 04:10:51;;;;;;;23.58;7.72;;;;;;;;;;5111746;28;20036;-65
2022/11/25 04:13:17;;;;;;;29.60;8.43;;;;;;;;;;5111761;28;20551;-65
2022/11/25 04:15:46;;;;;;;24.33;7.75;;;;;;;;;;5111858;28;20055;-65
2022/11/25 04:18:16;;;;;;;20.98;7.65;;;;;;;;;;5111707;28;20116;-65
2022/11/25 04:20:42;;;;;;;30.20;8.32;;;;;;;;;;5111603;28;20041;-65
2022/11/25 04:23:09;;;;;;;25.70;8.00;;;;;;;;;;5111981;28;20040;-65
2022/11/25 04:25:36;;;;;;;28.85;8.48;;;;;;;;;;5111841;28;20035;-65
2022/11/25 04:28:02;;;;;;;32.95;9.07;;;;;;;;;;5111201;28;20043;-65
2022/11/25 04:30:29;;;;;;;23.13;8.18;;;;;;;;;;5111558;28;20036;-65
2022/11/25 04:32:55;;;;;;;28.75;8.27;;;;;;;;;;5110007;28;20050;-65
2022/11/25 04:35:21;;;;;;;29.60;8.30;;;;;;;;;;5111539;28;20047;-65
2022/11/25 04:37:47;;;;;;;25.85;9.23;;;;;;;;;;5111874;28;20543;-65
2022/11/25 04:40:13;;;;;;;23.10;8.20;;;;;;;;;;5111797;28;20039;-65
2022/11/25 04:42:39;;;;;;;32.75;9.45;;;;;;;;;;5111353;28;20039;-65
2022/11/25 04:45:07;;;;;;;30.08;8.93;;;;;;;;;;5111439;28;20043;-65
2022/11/25 04:47:33;;;;;;;25.15;9.50;;;;;;;;;;5111473;28;20044;-65
2022/11/25 04:49:59;;;;;;;33.58;9.95;;;;;;;;;;5113047;28;20412;-65
2022/11/25 04:52:26;;;;;;;26.73;9.43;;;;;;;;;;5115547;28;20047;-65
2022/11/25 04:54:52;;;;;;;30.98;8.98;;;;;;;;;;5115842;28;20142;-65
2022/11/25 04:57:18;;;;;;;27.45;9.57;;;;;;;;;;5114054;28;20532;-65
2022/11/25 04:59:45;;;;;;;24.73;9.95;;;;;;;;;;5114297;28;20130;-65
2022/11/25 05:02:15;;;;;;;34.45;9.20;;;;;;;;;;5115346;28;20040;-65
2022/11/25 05:04:42;;;;;;;25.20;8.30;;;;;;;;;;5097184;28;20285;-65
2022/11/25 05:07:08;;;;;;;28.95;9.07;;;;;;;;;;5093530;28;20040;-65
2022/11/25 05:09:34;;;;;;;32.50;9.88;;;;;;;;;;5111560;28;20039;-65
2022/11/25 05:12:00;;;;;;;32.35;9.68;;;;;;;;;;5115010;28;20050;-65
2022/11/25 05:14:26;;;;;;;30.80;10.13;;;;;;;;;;5115178;28;20486;-65
2022/11/25 05:16:52;;;;;;;31.08;10.10;;;;;;;;;;5115067;28;20134;-65
2022/11/25 05:19:18;;;;;;;31.63;9.75;;;;;;;;;;5114859;28;20032;-65
2022/11/25 05:21:44;;;;;;;29.67;8.90;;;;;;;;;;5115115;28;20047;-65
2022/11/25 05:24:10;;;;;;;28.33;9.45;;;;;;;;;;5115345;28;20046;-65
2022/11/25 05:26:37;;;;;;;26.50;9.20;;;;;;;;;;5114427;28;20118;-65
2022/11/25 05:29:03;;;;;;;40.30;10.88;;;;;;;;;;5115378;28;20043;-65
2022/11/25 05:31:29;;;;;;;26.83;9.40;;;;;;;;;;5114777;28;20047;-65
2022/11/25 05:33:55;;;;;;;33.22;10.43;;;;;;;;;;5114654;28;20050;-65
2022/11/25 05:36:21;;;;;;;25.05;9.23;;;;;;;;;;5113558;28;20127;-65
2022/11/25 05:38:47;;;;;;;22.85;9.23;;;;;;;;;;5114952;28;20046;-65
2022/11/25 05:41:13;;;;;;;25.23;9.35;;;;;;;;;;5114358;28;20408;-65
2022/11/25 05:43:39;;;;;;;19.02;8.02;;;;;;;;;;5114903;28;20075;-65
2022/11/25 05:46:06;;;;;;;24.95;9.07;;;;;;;;;;5114795;28;20047;-65
2022/11/25 05:48:32;;;;;;;32.03;9.35;;;;;;;;;;5114318;28;20032;-65
2022/11/25 05:51:02;;;;;;;32.75;9.25;;;;;;;;;;5114333;28;20043;-65
2022/11/25 05:53:28;;;;;;;23.80;8.68;;;;;;;;;;5114689;28;20035;-65
2022/11/25 05:55:55;;;;;;;22.88;9.43;;;;;;;;;;5114241;28;20366;-65
2022/11/25 05:58:21;;;;;;;26.67;9.25;;;;;;;;;;5114696;28;20274;-65
2022/11/25 06:00:47;;;;;;;28.40;8.15;;;;;;;;;;5113831;28;20028;-65
2022/11/25 06:03:13;;;;;;;26.25;8.40;;;;;;;;;;5109913;28;20078;-65
2022/11/25 06:05:40;;;;;;;26.75;8.00;;;;;;;;;;5093969;28;20036;-65
2022/11/25 06:08:06;;;;;;;24.48;7.88;;;;;;;;;;5097984;28;20031;-65
2022/11/25 06:10:32;;;;;;;26.23;8.57;;;;;;;;;;5113518;28;20039;-65
2022/11/25 06:12:58;;;;;;;23.80;7.38;;;;;;;;;;5114409;28;20039;-65
2022/11/25 06:15:24;;;;;;;27.33;7.47;;;;;;;;;;5114057;28;20513;-65
2022/11/25 06:17:51;;;;;;;22.63;6.82;;;;;;;;;;5113825;28;20055;-65
2022/11/25 06:20:17;;;;;;;16.52;5.65;;;;;;;;;;5106274;28;20084;-64
2022/11/25 06:22:43;;;;;;;21.98;6.32;;;;;;;;;;5113651;28;20055;-64
2022/11/25 06:25:09;;;;;;;23.88;5.75;;;;;;;;;;5113304;28;20043;-64
2022/11/25 06:27:35;;;;;;;25.00;5.78;;;;;;;;;;5113643;28;20167;-64
2022/11/25 06:30:01;;;;;;;15.27;5.60;;;;;;;;;;5113572;28;20101;-64
2022/11/25 06:32:27;;;;;;;21.20;5.05;;;;;;;;;;5106828;28;20042;-63
2022/11/25 06:34:53;;;;;;;18.92;5.18;;;;;;;;;;5112681;28;20071;-63
2022/11/25 06:37:19;;;;;;;20.13;4.72;;;;;;;;;;5111875;28;20052;-63
2022/11/25 06:39:45;;;;;;;22.52;5.32;;;;;;;;;;5112334;28;20041;-62
2022/11/25 06:42:11;;;;;;;19.70;5.20;;;;;;;;;;5113095;28;20047;-63
2022/11/25 06:44:37;;;;;;;22.67;5.65;;;;;;;;;;5112065;28;20043;-64
2022/11/25 06:47:03;;;;;;;12.40;4.30;;;;;;;;;;5111471;28;20770;-64
2022/11/25 06:49:29;;;;;;;16.30;5.03;;;;;;;;;;5112751;28;20079;-64
2022/11/25 06:51:55;;;;;;;15.90;5.00;;;;;;;;;;5112110;28;20047;-64
2022/11/25 06:54:21;;;;;;;19.52;4.72;;;;;;;;;;5112588;28;20092;-64
2022/11/25 06:56:50;;;;;;;16.48;4.97;;;;;;;;;;5112251;28;20035;-64
2022/11/25 06:59:17;;;;;;;18.17;5.00;;;;;;;;;;5112462;28;20055;-62
2022/11/25 07:01:43;;;;;;;21.17;5.38;;;;;;;;;;5111958;28;20044;-62
2022/11/25 07:04:09;;;;;;;21.90;5.88;;;;;;;;;;5112278;28;20036;-63
2022/11/25 07:06:35;;;;;;;17.83;5.15;;;;;;;;;;5112849;28;20038;-61
2022/11/25 07:09:02;;;;;;;18.45;5.15;;;;;;;;;;5111933;28;20040;-62
2022/11/25 07:11:29;;;;;;;16.95;4.78;;;;;;;;;;5111856;28;20047;-62
2022/11/25 07:13:56;;;;;;;16.65;4.78;;;;;;;;;;5111926;28;20043;-61
2022/11/25 07:16:22;;;;;;;17.30;4.60;;;;;;;;;;5111707;28;20095;-62
2022/11/25 07:18:49;;;;;;;13.82;4.40;;;;;;;;;;5111463;28;20047;-62
2022/11/25 07:21:16;;;;;;;17.88;4.32;;;;;;;;;;5111789;28;20096;-62
2022/11/25 07:23:43;;;;;;;16.80;4.15;;;;;;;;;;5111807;28;20428;-62
2022/11/25 07:26:11;;;;;;;11.45;3.75;;;;;;;;;;5111843;28;20522;-62
2022/11/25 07:28:38;;;;;;;16.73;4.60;;;;;;;;;;5112141;28;20036;-63
2022/11/25 07:31:24;;;;;;;12.63;4.05;;;;;;;;;;5111620;28;20067;-65
2022/11/25 07:33:52;;;;;;;15.77;4.07;;;;;;;;;;5111876;28;20036;-64
2022/11/25 07:36:18;;;;;;;12.52;3.88;;;;;;;;;;5112290;28;20549;-65
2022/11/25 07:38:44;;;;;;;15.95;3.88;;;;;;;;;;5111717;28;20035;-65
2022/11/25 07:41:14;;;;;;;16.65;4.03;;;;;;;;;;5111658;28;20485;-65
2022/11/25 07:43:40;;;;;;;10.10;3.60;;;;;;;;;;5111862;28;20467;-65
2022/11/25 07:46:12;;;;;;;17.65;4.20;;;;;;;;;;5111614;28;20044;-64
2022/11/25 07:48:38;;;;;;;18.77;4.32;;;;;;;;;;5111969;28;20039;-64
2022/11/25 07:51:05;;;;;;;21.08;4.22;;;;;;;;;;5085252;28;20134;-65
2022/11/25 07:53:31;;;;;;;13.77;4.13;;;;;;;;;;5110927;28;20149;-66
2022/11/25 07:56:01;;;;;;;16.30;4.03;;;;;;;;;;5101445;28;20038;-67
2022/11/25 07:58:27;;;;;;;14.77;4.38;;;;;;;;;;5101002;28;20421;-66
2022/11/25 08:00:53;;;;;;;19.38;4.55;;;;;;;;;;5108252;28;20413;-64
2022/11/25 08:03:19;;;;;;;15.18;4.70;;;;;;;;;;5110955;28;20059;-64
2022/11/25 08:05:45;;;;;;;12.95;4.10;;;;;;;;;;5111344;28;20032;-65
2022/11/25 08:08:11;;;;;;;17.48;4.43;;;;;;;;;;5109265;28;20401;-66
2022/11/25 08:10:39;;;;;;;13.05;4.35;;;;;;;;;;5109053;28;20043;-61
2022/11/25 08:13:06;;;;;;;17.58;4.78;;;;;;;;;;5078092;28;20119;-58
2022/11/25 08:15:32;;;;;;;15.20;5.05;;;;;;;;;;5098927;28;20064;-61
2022/11/25 08:17:58;;;;;;;15.32;4.75;;;;;;;;;;5101419;28;20056;-62
2022/11/25 08:20:24;;;;;;;16.55;4.72;;;;;;;;;;5106603;28;20051;-61
2022/11/25 08:22:50;;;;;;;18.48;4.82;;;;;;;;;;5096464;28;20044;-61
2022/11/25 08:25:16;;;;;;;12.85;4.57;;;;;;;;;;5107145;28;20131;-62
2022/11/25 08:27:42;;;;;;;15.77;5.05;;;;;;;;;;5109978;28;20050;-61
2022/11/25 08:30:08;;;;;;;14.50;4.90;;;;;;;;;;5116363;28;20031;-62
2022/11/25 08:32:38;;;;;;;17.55;5.00;;;;;;;;;;5102812;28;20046;-62
2022/11/25 08:35:04;;;;;;;15.35;5.72;;;;;;;;;;5103134;28;20063;-63
2022/11/25 08:37:30;;;;;;;12.35;4.80;;;;;;;;;;5116614;28;20094;-60
2022/11/25 08:39:56;;;;;;;14.23;4.93;;;;;;;;;;5116078;28;20035;-61
2022/11/25 08:42:22;;;;;;;13.80;5.32;;;;;;;;;;5116425;28;20039;-63
2022/11/25 08:44:53;;;;;;;16.05;5.53;;;;;;;;;;5117037;28;20627;-61
2022/11/25 08:47:19;;;;;;;16.42;5.63;;;;;;;;;;5114759;28;20036;-62
2022/11/25 08:49:45;;;;;;;14.80;5.07;;;;;;;;;;5116922;28;20706;-62
2022/11/25 08:52:11;;;;;;;19.00;5.55;;;;;;;;;;5116273;28;20048;-62
2022/11/25 08:54:37;;;;;;;17.85;6.15;;;;;;;;;;5110044;28;20130;-62
2022/11/25 08:57:04;;;;;;;17.77;6.15;;;;;;;;;;5110278;28;20035;-63
2022/11/25 08:59:30;;;;;;;12.90;5.20;;;;;;;;;;5108683;28;20051;-63
2022/11/25 09:01:56;;;;;;;16.85;5.15;;;;;;;;;;5110760;28;20046;-68
2022/11/25 09:04:22;;;;;;;18.80;5.70;;;;;;;;;;5105600;28;20529;-66
2022/11/25 09:06:48;;;;;;;15.13;6.30;;;;;;;;;;5114541;28;20035;-68
2022/11/25 09:09:14;;;;;;;11.93;5.70;;;;;;;;;;5114851;28;20035;-66
2022/11/25 09:11:41;;;;;;;16.38;6.22;;;;;;;;;;5099977;28;20433;-66
2022/11/25 09:14:07;;;;;;;13.32;6.40;;;;;;;;;;5115928;27;20700;-66
2022/11/25 09:16:33;;;;;;;17.98;6.72;;;;;;;;;;5108418;28;20056;-65
2022/11/25 09:18:59;;;;;;;13.98;6.40;;;;;;;;;;5117041;28;20090;-65
2022/11/25 09:21:25;;;;;;;19.40;6.45;;;;;;;;;;5116845;28;20040;-66
2022/11/25 09:23:53;;;;;;;14.68;6.50;;;;;;;;;;5116297;28;20052;-66
2022/11/25 09:26:23;;;;;;;11.60;5.57;;;;;;;;;;5117282;27;20044;-65
2022/11/25 09:28:49;;;;;;;14.52;5.80;;;;;;;;;;5116256;28;20039;-65
2022/11/25 09:31:16;;;;;;;10.40;5.38;;;;;;;;;;5117046;28;20484;-64
2022/11/25 09:33:42;;;;;;;17.35;6.47;;;;;;;;;;5112726;28;20040;-64
2022/11/25 09:36:09;;;;;;;15.30;6.10;;;;;;;;;;5099530;28;20121;-65
2022/11/25 09:38:35;;;;;;;17.08;6.05;;;;;;;;;;5113665;28;20036;-65
2022/11/25 09:41:04;;;;;;;13.40;5.20;;;;;;;;;;5113996;28;20528;-66
2022/11/25 09:46:40;;;;;;;14.40;5.50;;;;;;;;;;5112575;28;20040;-65
2022/11/25 09:49:14;;;;;;;15.30;4.95;;;;;;;;;;5113900;28;20584;-65
2022/11/25 09:51:39;;;;;;;13.82;4.53;;;;;;;;;;5113708;28;20036;-66
2022/11/25 09:54:16;;;;;;;15.48;5.20;;;;;;;;;;5111906;28;20527;-66
2022/11/25 09:56:47;;;;;;;9.07;4.30;;;;;;;;;;5111883;28;20042;-65
2022/11/25 09:59:13;;;;;;;15.30;5.10;;;;;;;;;;5113189;28;20046;-65
2022/11/25 10:01:45;;;;;;;10.85;4.72;;;;;;;;;;5111029;28;20561;-66
2022/11/25 10:04:18;;;;;;;14.35;4.82;;;;;;;;;;5112563;28;20404;-65
2022/11/25 10:06:56;;;;;;;11.68;4.65;;;;;;;;;;5113355;28;20039;-65
2022/11/25 10:09:24;;;;;;;11.40;4.57;;;;;;;;;;5112456;28;20146;-66
2022/11/25 10:11:50;;;;;;;12.85;4.70;;;;;;;;;;5112250;28;20042;-65
2022/11/25 10:14:39;;;;;;;14.40;4.55;;;;;;;;;;5112674;28;20043;-65
2022/11/25 10:17:14;;;;;;;11.98;3.92;;;;;;;;;;5112473;28;20055;-65
2022/11/25 10:19:43;;;;;;;15.52;4.85;;;;;;;;;;5113046;28;20044;-65
2022/11/25 10:22:12;;;;;;;13.63;5.10;;;;;;;;;;5112557;28;20040;-65
2022/11/25 10:24:38;;;;;;;13.93;4.50;;;;;;;;;;5112592;28;20042;-64
2022/11/25 10:27:07;;;;;;;17.95;4.70;;;;;;;;;;5112136;28;20373;-64
2022/11/25 10:29:37;;;;;;;11.13;4.57;;;;;;;;;;5111990;28;20541;-67
2022/11/25 10:32:15;;;;;;;10.00;4.68;;;;;;;;;;5112282;28;20494;-65
2022/11/25 10:34:44;;;;;;;8.00;4.13;;;;;;;;;;5104138;28;20092;-65
2022/11/25 10:37:12;;;;;;;9.55;4.20;;;;;;;;;;5111739;28;20047;-65
2022/11/25 10:39:38;;;;;;;11.18;4.00;;;;;;;;;;5112462;28;20040;-64
2022/11/25 10:42:08;;;;;;;19.67;4.65;;;;;;;;;;5093303;28;20139;-65
2022/11/25 10:44:38;;;;;;;10.75;3.60;;;;;;;;;;5111787;28;20038;-64
2022/11/25 10:47:19;;;;;;;11.98;3.90;;;;;;;;;;5111642;28;20040;-65
2022/11/25 10:50:04;;;;;;;11.43;3.95;;;;;;;;;;5105902;28;20056;-68
2022/11/25 10:52:34;;;;;;;7.93;3.53;;;;;;;;;;5096315;28;20137;-68
2022/11/25 10:55:13;;;;;;;14.50;4.43;;;;;;;;;;5101550;28;20043;-64
2022/11/25 10:57:40;;;;;;;10.55;3.20;;;;;;;;;;5107077;28;20055;-65
2022/11/25 11:00:08;;;;;;;12.65;3.65;;;;;;;;;;5093812;28;20048;-64
2022/11/25 11:02:34;;;;;;;13.23;3.63;;;;;;;;;;5103266;28;20444;-64
2022/11/25 11:05:09;;;;;;;8.55;3.13;;;;;;;;;;5102317;28;20097;-64
2022/11/25 11:07:39;;;;;;;9.23;3.00;;;;;;;;;;5103617;28;20027;-64
2022/11/25 11:10:14;;;;;;;13.73;3.33;;;;;;;;;;5101068;28;20036;-64
2022/11/25 11:13:03;;;;;;;13.65;3.78;;;;;;;;;;5110491;28;20042;-65
2022/11/25 11:15:30;;;;;;;14.63;3.53;;;;;;;;;;5097001;28;20089;-66
2022/11/25 11:17:58;;;;;;;10.70;3.50;;;;;;;;;;5110562;28;20047;-65
2022/11/25 11:20:26;;;;;;;14.85;3.28;;;;;;;;;;5101209;28;20043;-64
2022/11/25 11:23:04;;;;;;;10.75;3.67;;;;;;;;;;5110301;28;20055;-67
2022/11/25 11:25:32;;;;;;;12.95;3.50;;;;;;;;;;5110964;28;20123;-65
2022/11/25 11:27:58;;;;;;;10.32;2.92;;;;;;;;;;5100528;28;20043;-65
2022/11/25 11:30:26;;;;;;;12.88;3.83;;;;;;;;;;5108554;28;20062;-63
2022/11/25 11:33:06;;;;;;;14.45;3.38;;;;;;;;;;5100433;28;20086;-63
2022/11/25 11:35:32;;;;;;;13.75;3.45;;;;;;;;;;5111184;28;20086;-63
2022/11/25 11:38:02;;;;;;;8.07;2.97;;;;;;;;;;5110775;28;20048;-63
2022/11/25 11:40:31;;;;;;;14.70;3.17;;;;;;;;;;5110638;28;20043;-63
2022/11/25 11:43:15;;;;;;;16.40;3.40;;;;;;;;;;5108750;28;20061;-63
2022/11/25 11:46:00;;;;;;;11.88;3.05;;;;;;;;;;5110689;28;20078;-63
2022/11/25 11:48:29;;;;;;;13.52;3.17;;;;;;;;;;5110500;28;20050;-63
2022/11/25 11:50:55;;;;;;;9.60;3.33;;;;;;;;;;5111176;28;20063;-63
2022/11/25 11:53:30;;;;;;;13.27;3.20;;;;;;;;;;5110930;28;20082;-63
2022/11/25 11:55:59;;;;;;;10.95;2.97;;;;;;;;;;5109806;28;20032;-63
2022/11/25 11:58:28;;;;;;;14.55;3.42;;;;;;;;;;5109273;28;20035;-63
2022/11/25 12:01:00;;;;;;;9.90;3.15;;;;;;;;;;5109674;28;20127;-63
2022/11/25 12:03:28;;;;;;;10.75;3.25;;;;;;;;;;5109467;28;20048;-63
2022/11/25 12:05:56;;;;;;;8.65;2.92;;;;;;;;;;5102995;28;20075;-63
2022/11/25 12:08:40;;;;;;;18.85;3.40;;;;;;;;;;5092816;28;20050;-63
2022/11/25 12:11:16;;;;;;;13.52;3.30;;;;;;;;;;5091084;28;20036;-63
2022/11/25 12:13:42;;;;;;;9.20;2.63;;;;;;;;;;5095790;28;20044;-64
2022/11/25 12:16:17;;;;;;;10.10;2.97;;;;;;;;;;5103148;28;20126;-62
2022/11/25 12:18:49;;;;;;;14.15;3.08;;;;;;;;;;5108239;28;20058;-63
2022/11/25 12:21:28;;;;;;;9.75;2.75;;;;;;;;;;5103026;28;20039;-63
2022/11/25 12:24:03;;;;;;;13.05;2.45;;;;;;;;;;5100690;28;20043;-61
2022/11/25 12:26:47;;;;;;;14.95;2.95;;;;;;;;;;5099471;28;20047;-64
2022/11/25 12:29:22;;;;;;;11.65;2.85;;;;;;;;;;5100551;28;20046;-64
2022/11/25 12:31:51;;;;;;;13.50;2.95;;;;;;;;;;5109010;28;20036;-64
2022/11/25 12:34:27;;;;;;;17.40;3.38;;;;;;;;;;5100655;28;20138;-65
2022/11/25 12:36:55;;;;;;;12.52;2.45;;;;;;;;;;5101968;28;20070;-64
2022/11/25 12:39:27;;;;;;;12.70;3.25;;;;;;;;;;5110844;28;20478;-64
2022/11/25 12:41:55;;;;;;;12.80;3.35;;;;;;;;;;5110109;28;20101;-61
2022/11/25 12:44:34;;;;;;;12.30;2.88;;;;;;;;;;5109851;28;20140;-61
2022/11/25 12:47:00;;;;;;;18.77;3.25;;;;;;;;;;5110026;28;20047;-61
2022/11/25 12:49:28;;;;;;;11.32;2.90;;;;;;;;;;5100368;28;20055;-60
2022/11/25 12:51:57;;;;;;;12.35;2.95;;;;;;;;;;5103696;28;20040;-60
2022/11/25 12:54:43;;;;;;;11.68;2.90;;;;;;;;;;5097444;28;20050;-60
2022/11/25 12:57:09;;;;;;;17.42;3.38;;;;;;;;;;5089363;28;20248;-61
2022/11/25 12:59:38;;;;;;;9.05;2.80;;;;;;;;;;5096793;28;20044;-61
2022/11/25 13:02:15;;;;;;;13.18;3.17;;;;;;;;;;5104240;28;20035;-61
2022/11/25 13:04:44;;;;;;;12.68;2.92;;;;;;;;;;5100375;28;20028;-62
2022/11/25 13:07:10;;;;;;;16.58;3.05;;;;;;;;;;5097297;28;20032;-62
2022/11/25 13:09:42;;;;;;;13.18;2.42;;;;;;;;;;5099154;28;20409;-62
2022/11/25 13:12:26;;;;;;;13.02;2.65;;;;;;;;;;5096549;28;20040;-62
2022/11/25 13:15:11;;;;;;;14.30;3.10;;;;;;;;;;5104421;28;20146;-62
2022/11/25 13:17:40;;;;;;;16.67;3.85;;;;;;;;;;5097427;28;20480;-62
2022/11/25 13:20:24;;;;;;;11.90;2.58;;;;;;;;;;5093012;28;20035;-62
2022/11/25 13:23:02;;;;;;;15.85;3.28;;;;;;;;;;5094442;28;20072;-62
2022/11/25 13:25:28;;;;;;;11.48;2.17;;;;;;;;;;5087272;28;20027;-62
2022/11/25 13:27:54;;;;;;;10.45;2.22;;;;;;;;;;5107491;28;20063;-62
2022/11/25 13:30:33;;;;;;;17.85;3.33;;;;;;;;;;5100246;28;20063;-62
2022/11/25 13:33:11;;;;;;;10.15;2.10;;;;;;;;;;5102468;28;20092;-63
2022/11/25 13:35:46;;;;;;;13.93;2.58;;;;;;;;;;5094303;28;20051;-62
2022/11/25 13:38:30;;;;;;;13.57;2.72;;;;;;;;;;5112185;28;20495;-62
2022/11/25 13:41:01;;;;;;;16.10;3.08;;;;;;;;;;5103636;28;20036;-60
2022/11/25 13:43:27;;;;;;;16.25;2.65;;;;;;;;;;5100133;28;20390;-62
2022/11/25 13:45:53;;;;;;;12.82;2.65;;;;;;;;;;5112679;28;20047;-61
2022/11/25 13:48:21;;;;;;;14.10;2.72;;;;;;;;;;5110415;28;20616;-60
2022/11/25 13:50:48;;;;;;;13.43;2.50;;;;;;;;;;5108602;28;20035;-61
2022/11/25 13:53:20;;;;;;;17.20;2.83;;;;;;;;;;5095615;28;20498;-61
2022/11/25 13:55:49;;;;;;;17.02;3.55;;;;;;;;;;5092216;28;20036;-61
2022/11/25 13:58:25;;;;;;;13.55;2.30;;;;;;;;;;5103422;28;20055;-58
2022/11/25 14:00:57;;;;;;;16.23;2.80;;;;;;;;;;5100664;28;20051;-59
2022/11/25 14:03:23;;;;;;;19.35;2.95;;;;;;;;;;5110976;28;20043;-58
2022/11/25 14:06:04;;;;;;;13.48;2.60;;;;;;;;;;5102576;28;20082;-60
2022/11/25 14:08:30;;;;;;;13.60;2.60;;;;;;;;;;5097504;28;20035;-60
2022/11/25 14:11:14;;;;;;;10.30;2.20;;;;;;;;;;5100274;28;20728;-59
2022/11/25 14:13:40;;;;;;;10.00;2.30;;;;;;;;;;5102194;28;20042;-60
2022/11/25 14:16:09;;;;;;;15.88;2.80;;;;;;;;;;5111183;28;20122;-59
2022/11/25 14:18:43;;;;;;;17.92;2.83;;;;;;;;;;5101630;28;20066;-59
2022/11/25 14:21:12;;;;;;;11.55;2.38;;;;;;;;;;5106256;28;20340;-59
2022/11/25 14:23:46;;;;;;;16.35;2.97;;;;;;;;;;5102790;28;20078;-59
2022/11/25 14:26:32;;;;;;;19.23;3.13;;;;;;;;;;5099545;28;20046;-60
2022/11/25 14:28:59;;;;;;;13.13;2.70;;;;;;;;;;5100189;28;20069;-60
2022/11/25 14:31:51;;;;;;;20.02;2.88;;;;;;;;;;5094289;28;20043;-60
2022/11/25 14:34:21;;;;;;;18.80;2.80;;;;;;;;;;5095938;28;20108;-61
2022/11/25 14:36:50;;;;;;;21.02;3.60;;;;;;;;;;5112714;28;20039;-59
2022/11/25 14:39:28;;;;;;;22.58;3.50;;;;;;;;;;5111917;28;20060;-60
2022/11/25 14:42:02;;;;;;;16.83;3.10;;;;;;;;;;5112387;28;20074;-59
2022/11/25 14:44:32;;;;;;;16.45;2.70;;;;;;;;;;5107435;28;20087;-60